Time;durP1;ratioP1;P1;durP2;ratioP2;P2;SDS_P1;SDS_P2;PMS_P1;PMS_P2;Temp;Humidity;BMP_temperature;BMP_pressure;BME280_temperature;BME280_humidity;BME280_pressure;Samples;Min_cycle;Max_cycle;Signal;HPM_P1;HPM_P2
2021/07/17 00:01:17;;;;;;;17.13;15.43;;;;;;;25.35;65.80;99338.31;5063804;28;20021;-62
2021/07/17 00:03:43;;;;;;;18.15;16.25;;;;;;;25.27;65.90;99316.94;5063743;28;20064;-62
2021/07/17 00:06:09;;;;;;;16.52;14.90;;;;;;;25.32;65.90;99335.94;5063770;28;20265;-61
2021/07/17 00:08:35;;;;;;;17.02;15.25;;;;;;;25.30;66.07;99333.38;5063492;28;20013;-61
2021/07/17 00:11:01;;;;;;;17.23;15.55;;;;;;;25.29;66.14;99326.41;5063686;28;20021;-61
2021/07/17 00:13:29;;;;;;;22.48;16.60;;;;;;;25.15;66.55;99316.19;5063399;28;20330;-62
2021/07/17 00:15:56;;;;;;;22.45;17.90;;;;;;;25.25;66.64;99338.25;5063571;28;20078;-62
2021/07/17 00:18:22;;;;;;;20.55;17.17;;;;;;;25.15;66.63;99337.41;5063515;28;20056;-61
2021/07/17 00:20:49;;;;;;;18.00;16.10;;;;;;;25.12;66.69;99332.38;5063405;28;20059;-61
2021/07/17 00:23:17;;;;;;;17.50;15.80;;;;;;;25.11;66.90;99334.19;5063191;28;20052;-61
2021/07/17 00:25:44;;;;;;;18.63;15.60;;;;;;;25.08;67.04;99326.53;5063279;28;20052;-61
2021/07/17 00:28:10;;;;;;;17.08;15.30;;;;;;;25.11;67.21;99335.97;5063444;28;20067;-62
2021/07/17 00:30:36;;;;;;;18.17;16.25;;;;;;;25.13;66.66;99345.50;5062145;28;20021;-61
2021/07/17 00:33:04;;;;;;;18.02;16.33;;;;;;;25.07;67.06;99342.53;5063400;28;20270;-61
2021/07/17 00:35:29;;;;;;;18.30;16.40;;;;;;;25.06;66.90;99330.28;5063169;28;20056;-62
2021/07/17 00:37:57;;;;;;;18.60;16.27;;;;;;;25.07;67.13;99347.81;5063251;28;20279;-61
2021/07/17 00:40:22;;;;;;;18.35;16.55;;;;;;;25.07;67.21;99338.09;5063093;28;20024;-61
2021/07/17 00:42:49;;;;;;;17.92;15.85;;;;;;;25.07;66.88;99332.78;5062973;28;20013;-61
2021/07/17 00:45:17;;;;;;;17.27;15.43;;;;;;;25.06;67.13;99328.44;5061841;28;20040;-61
2021/07/17 00:47:43;;;;;;;20.98;15.93;;;;;;;25.03;67.21;99333.19;5062933;28;20048;-61
2021/07/17 00:50:12;;;;;;;17.05;15.35;;;;;;;25.09;67.24;99340.59;5062920;28;20055;-61
2021/07/17 00:52:38;;;;;;;19.00;15.88;;;;;;;25.07;67.42;99330.13;5054508;28;20051;-60
2021/07/17 00:55:05;;;;;;;17.35;15.55;;;;;;;25.06;67.48;99332.91;5063056;28;20025;-61
2021/07/17 00:57:36;;;;;;;17.70;15.90;;;;;;;24.82;67.00;99286.41;5062720;28;20044;-61
2021/07/17 01:00:12;;;;;;;18.00;16.08;;;;;;;24.75;67.17;99291.38;5062834;28;20295;-62
2021/07/17 01:02:50;;;;;;;18.92;16.33;;;;;;;24.72;67.49;99291.66;5062654;28;20055;-61
2021/07/17 01:05:18;;;;;;;18.65;16.85;;;;;;;24.93;67.79;99341.09;5062833;28;20334;-60
2021/07/17 01:07:48;;;;;;;19.45;17.35;;;;;;;24.89;68.22;99337.03;5062837;28;20048;-61
2021/07/17 01:10:19;;;;;;;20.08;17.90;;;;;;;24.63;67.88;99297.75;5062604;28;20265;-60
2021/07/17 01:12:49;;;;;;;20.10;17.77;;;;;;;24.82;68.25;99342.03;5062632;28;20330;-61
2021/07/17 01:15:15;;;;;;;18.85;16.85;;;;;;;24.79;67.86;99329.06;5062461;28;20352;-61
2021/07/17 01:17:41;;;;;;;18.92;16.95;;;;;;;24.83;67.99;99338.41;5062776;28;20052;-60
2021/07/17 01:20:10;;;;;;;17.90;16.10;;;;;;;24.81;68.03;99345.63;5062596;28;20053;-61
2021/07/17 01:22:37;;;;;;;17.90;16.00;;;;;;;24.80;67.83;99331.56;5062350;28;20360;-61
2021/07/17 01:25:07;;;;;;;17.67;15.98;;;;;;;24.57;67.64;99291.16;5062576;28;20055;-61
2021/07/17 01:27:32;;;;;;;18.55;16.33;;;;;;;24.87;67.60;99338.97;5062443;28;20444;-61
2021/07/17 01:30:13;;;;;;;18.17;16.33;;;;;;;24.82;67.74;99342.03;5062511;28;20275;-61
2021/07/17 01:32:39;;;;;;;18.27;16.17;;;;;;;24.74;68.00;99341.84;5054377;28;20072;-61
2021/07/17 01:35:05;;;;;;;19.00;16.05;;;;;;;24.74;67.93;99344.50;5061320;28;20202;-62
2021/07/17 01:37:31;;;;;;;17.00;15.30;;;;;;;24.73;68.07;99338.38;5062358;28;20044;-62
2021/07/17 01:39:57;;;;;;;16.98;15.32;;;;;;;24.75;68.25;99335.59;5062193;28;20241;-62
2021/07/17 01:42:23;;;;;;;17.08;15.38;;;;;;;24.71;67.88;99327.09;5062109;28;20017;-62
2021/07/17 01:44:49;;;;;;;17.70;14.70;;;;;;;24.79;68.04;99335.19;5062442;28;20100;-61
2021/07/17 01:47:15;;;;;;;16.33;14.55;;;;;;;24.77;68.04;99331.84;5062305;28;20115;-61
2021/07/17 01:49:41;;;;;;;19.00;15.05;;;;;;;24.80;67.76;99336.03;5062341;28;20051;-62
2021/07/17 01:52:09;;;;;;;15.60;14.20;;;;;;;24.79;67.63;99337.00;5061120;28;20349;-62
2021/07/17 01:54:37;;;;;;;16.95;15.13;;;;;;;24.76;67.50;99337.28;5062294;28;20356;-62
2021/07/17 01:57:04;;;;;;;15.38;13.63;;;;;;;24.79;67.15;99339.66;5062277;28;20041;-62
2021/07/17 01:59:35;;;;;;;15.93;14.55;;;;;;;24.72;67.48;99335.84;5062189;28;20063;-62
2021/07/17 02:02:02;;;;;;;13.73;12.55;;;;;;;24.73;67.35;99333.06;5062087;28;20278;-62
2021/07/17 02:04:27;;;;;;;14.60;13.30;;;;;;;24.76;67.27;99334.63;5061936;28;20068;-62
2021/07/17 02:06:53;;;;;;;15.10;13.70;;;;;;;24.78;67.09;99332.66;5062175;28;20254;-62
2021/07/17 02:09:19;;;;;;;14.27;12.90;;;;;;;24.81;67.19;99340.34;5062115;28;20350;-62
2021/07/17 02:11:45;;;;;;;15.07;13.63;;;;;;;24.78;67.25;99337.97;5062061;28;20028;-63
2021/07/17 02:14:11;;;;;;;15.70;13.95;;;;;;;24.78;67.09;99324.72;5065081;28;20372;-63
2021/07/17 02:16:39;;;;;;;14.63;13.20;;;;;;;24.76;67.01;99311.59;5065563;28;20100;-63
2021/07/17 02:19:16;;;;;;;14.35;12.95;;;;;;;24.87;66.89;99321.28;5065787;28;20273;-63
2021/07/17 02:21:41;;;;;;;13.65;12.45;;;;;;;24.93;67.04;99312.78;5058096;28;20056;-62
2021/07/17 02:24:07;;;;;;;14.65;12.90;;;;;;;24.96;67.07;99315.16;5065573;28;20032;-63
2021/07/17 02:26:33;;;;;;;14.70;13.25;;;;;;;24.95;66.84;99308.19;5065331;28;20265;-62
2021/07/17 02:28:59;;;;;;;14.30;12.73;;;;;;;24.97;66.79;99308.91;5065447;28;20025;-63
2021/07/17 02:31:25;;;;;;;13.25;12.05;;;;;;;25.02;66.83;99318.25;5065014;28;20053;-62
2021/07/17 02:33:51;;;;;;;14.27;13.02;;;;;;;25.07;66.76;99321.31;5065492;28;20032;-62
2021/07/17 02:36:17;;;;;;;13.68;12.35;;;;;;;25.08;66.83;99318.56;5065395;28;20029;-62
2021/07/17 02:38:43;;;;;;;15.10;13.40;;;;;;;25.09;66.84;99317.56;5065405;28;20357;-62
2021/07/17 02:41:09;;;;;;;13.93;12.55;;;;;;;25.15;66.43;99308.25;5065420;28;20051;-63
2021/07/17 02:43:34;;;;;;;15.80;13.07;;;;;;;25.17;67.23;99311.63;5065093;28;20021;-63
2021/07/17 02:46:00;;;;;;;15.45;13.93;;;;;;;25.20;66.65;99313.13;5065293;28;20028;-63
2021/07/17 02:48:26;;;;;;;14.82;13.38;;;;;;;25.23;66.53;99319.00;5065196;28;20229;-63
2021/07/17 02:50:52;;;;;;;14.75;13.45;;;;;;;25.21;66.68;99314.81;5065348;28;20021;-63
2021/07/17 02:53:18;;;;;;;14.75;13.25;;;;;;;25.21;66.75;99314.81;5064756;28;20032;-64
2021/07/17 02:55:43;;;;;;;14.40;13.00;;;;;;;25.27;66.38;99317.75;5065205;28;20052;-63
2021/07/17 02:58:09;;;;;;;15.07;13.50;;;;;;;25.37;66.38;99319.63;5065093;28;20045;-63
2021/07/17 03:00:35;;;;;;;15.32;13.82;;;;;;;25.32;66.68;99320.88;5064976;28;20162;-63
2021/07/17 03:03:02;;;;;;;15.23;13.63;;;;;;;25.36;66.55;99326.75;5064844;28;20041;-63
2021/07/17 03:05:28;;;;;;;15.50;14.10;;;;;;;25.40;66.75;99327.31;5064784;28;20250;-63
2021/07/17 03:07:54;;;;;;;16.88;13.68;;;;;;;25.47;66.46;99328.44;5064907;28;20056;-63
2021/07/17 03:10:20;;;;;;;15.38;13.80;;;;;;;25.47;66.37;99323.97;5063660;28;20089;-63
2021/07/17 03:12:46;;;;;;;16.98;15.13;;;;;;;25.47;66.68;99328.44;5064720;28;20183;-64
2021/07/17 03:15:12;;;;;;;15.23;13.65;;;;;;;25.49;66.68;99321.16;5064867;28;20021;-64
2021/07/17 03:17:38;;;;;;;15.93;14.32;;;;;;;25.55;66.53;99325.09;5063645;28;20021;-64
2021/07/17 03:20:06;;;;;;;17.60;15.50;;;;;;;25.59;66.28;99332.63;5064738;28;20037;-64
2021/07/17 03:22:31;;;;;;;16.75;15.05;;;;;;;25.64;65.98;99332.22;5063322;28;20072;-64
2021/07/17 03:24:57;;;;;;;17.13;15.35;;;;;;;25.79;65.47;99335.28;5063287;28;20044;-64
2021/07/17 03:27:23;;;;;;;15.88;14.27;;;;;;;25.84;65.51;99330.41;5064501;28;20167;-63
2021/07/17 03:29:49;;;;;;;16.40;14.45;;;;;;;25.84;65.42;99339.22;5064675;28;20029;-63
2021/07/17 03:32:21;;;;;;;16.45;14.63;;;;;;;25.89;65.46;99335.31;5064337;28;20096;-63
2021/07/17 03:34:47;;;;;;;20.45;16.00;;;;;;;25.91;65.91;99336.84;5064518;28;20056;-63
2021/07/17 03:37:12;;;;;;;16.55;14.75;;;;;;;25.91;65.77;99342.16;5064322;28;20017;-63
2021/07/17 03:39:38;;;;;;;20.48;15.27;;;;;;;25.93;65.70;99334.88;5056084;28;20055;-63
2021/07/17 03:42:04;;;;;;;16.05;14.43;;;;;;;26.02;65.41;99330.56;5064195;28;20063;-63
2021/07/17 03:44:30;;;;;;;17.13;15.40;;;;;;;26.17;65.15;99339.78;5064036;28;20021;-64
2021/07/17 03:46:56;;;;;;;15.88;14.45;;;;;;;26.25;64.93;99338.22;5064204;28;20361;-64
2021/07/17 03:49:22;;;;;;;16.02;14.43;;;;;;;26.36;64.85;99335.41;5064078;28;20044;-64
2021/07/17 03:51:48;;;;;;;16.15;14.65;;;;;;;26.55;64.65;99339.84;5064002;28;20266;-63
2021/07/17 03:54:15;;;;;;;18.27;15.15;;;;;;;26.57;64.43;99332.56;5063861;28;20224;-64
2021/07/17 03:56:41;;;;;;;17.73;15.13;;;;;;;26.67;64.17;99327.22;5063977;28;20057;-64
2021/07/17 03:59:06;;;;;;;16.15;14.55;;;;;;;26.66;64.58;99326.34;5063871;28;20063;-64
2021/07/17 04:01:32;;;;;;;16.00;14.60;;;;;;;26.62;64.63;99324.16;5063712;28;20949;-64
2021/07/17 04:03:58;;;;;;;16.17;13.95;;;;;;;26.69;64.24;99319.94;5063753;28;20101;-64
2021/07/17 04:06:24;;;;;;;16.25;14.55;;;;;;;26.75;64.20;99318.53;5063617;28;20041;-64
2021/07/17 04:08:50;;;;;;;16.50;14.95;;;;;;;26.78;64.16;99320.88;5062644;28;20310;-64
2021/07/17 04:11:15;;;;;;;16.20;14.65;;;;;;;26.70;64.57;99319.81;5063410;28;20032;-64
2021/07/17 04:13:41;;;;;;;15.90;14.38;;;;;;;26.70;64.75;99311.00;5063403;28;20067;-64
2021/07/17 04:16:07;;;;;;;16.17;14.68;;;;;;;26.78;64.53;99310.25;5063496;28;20067;-64
2021/07/17 04:18:33;;;;;;;15.88;13.57;;;;;;;26.76;65.03;99306.94;5063336;28;20072;-64
2021/07/17 04:20:59;;;;;;;15.48;13.93;;;;;;;26.83;64.92;99316.81;5063497;28;20021;-64
2021/07/17 04:23:25;;;;;;;14.93;13.52;;;;;;;26.85;64.81;99314.00;5063151;28;20091;-64
2021/07/17 04:25:50;;;;;;;16.77;14.38;;;;;;;26.89;64.98;99312.72;5063180;28;20020;-64
2021/07/17 04:28:16;;;;;;;15.20;13.70;;;;;;;26.91;64.70;99308.13;5063262;28;20017;-64
2021/07/17 04:30:42;;;;;;;15.20;13.80;;;;;;;27.00;64.56;99303.72;5045814;28;20045;-64
2021/07/17 04:33:08;;;;;;;15.93;14.40;;;;;;;27.09;64.47;99302.00;5045448;28;20380;-64
2021/07/17 04:35:35;;;;;;;15.43;13.88;;;;;;;27.14;63.72;99307.72;5045096;28;20136;-64
2021/07/17 04:38:01;;;;;;;17.60;14.70;;;;;;;27.19;63.69;99308.09;5063688;28;20068;-65
2021/07/17 04:40:26;;;;;;;15.88;14.32;;;;;;;27.27;63.67;99318.81;5063098;28;20025;-64
2021/07/17 04:42:52;;;;;;;14.77;13.35;;;;;;;27.30;63.92;99313.19;5056841;28;20040;-64
2021/07/17 04:45:18;;;;;;;16.08;14.43;;;;;;;27.30;64.22;99318.53;5062707;28;20072;-64
2021/07/17 04:47:44;;;;;;;19.92;14.15;;;;;;;27.38;63.75;99310.66;5062931;28;20028;-63
2021/07/17 04:50:10;;;;;;;14.90;13.48;;;;;;;27.43;63.33;99310.19;5062817;28;20273;-63
2021/07/17 04:52:36;;;;;;;16.17;14.38;;;;;;;27.54;63.14;99322.47;5059489;28;20372;-64
2021/07/17 04:55:02;;;;;;;15.48;13.98;;;;;;;27.64;62.54;99325.88;5056841;28;20037;-64
2021/07/17 04:57:28;;;;;;;16.17;14.52;;;;;;;27.69;63.03;99331.59;5061641;28;20080;-64
2021/07/17 04:59:53;;;;;;;15.57;14.10;;;;;;;27.76;62.56;99330.97;5062742;28;20084;-64
2021/07/17 05:02:19;;;;;;;15.55;13.90;;;;;;;27.82;61.97;99325.03;5062557;28;20021;-64
2021/07/17 05:04:45;;;;;;;15.07;13.57;;;;;;;27.87;61.90;99328.91;5062494;28;20044;-64
2021/07/17 05:07:11;;;;;;;14.60;13.15;;;;;;;28.04;60.87;99331.75;5062649;28;20213;-65
2021/07/17 05:09:37;;;;;;;18.80;13.43;;;;;;;28.14;60.27;99331.66;5062377;28;20017;-62
2021/07/17 05:12:03;;;;;;;15.13;13.40;;;;;;;28.29;60.00;99332.78;5062619;28;20053;-64
2021/07/17 05:14:29;;;;;;;14.65;13.15;;;;;;;28.42;59.50;99324.34;5062460;28;20056;-64
2021/07/17 05:16:55;;;;;;;14.80;13.27;;;;;;;28.55;58.82;99335.41;5062736;28;20021;-66
2021/07/17 05:19:20;;;;;;;16.20;14.50;;;;;;;28.59;59.42;99335.94;5062554;28;20013;-64
2021/07/17 05:21:46;;;;;;;15.43;14.02;;;;;;;28.71;58.58;99328.53;5062627;28;20021;-65
2021/07/17 05:24:12;;;;;;;15.25;13.75;;;;;;;28.83;58.74;99321.94;5062307;28;20013;-64
2021/07/17 05:26:38;;;;;;;16.95;15.35;;;;;;;28.89;57.65;99315.97;5054167;28;20615;-64
2021/07/17 05:29:04;;;;;;;19.92;15.73;;;;;;;29.04;56.97;99326.00;5062327;28;20064;-63
2021/07/17 05:31:29;;;;;;;16.42;14.80;;;;;;;29.00;57.57;99327.31;5061084;28;20017;-63
2021/07/17 05:33:55;;;;;;;15.68;14.13;;;;;;;29.08;56.68;99324.69;5062302;28;20082;-63
2021/07/17 05:36:21;;;;;;;16.40;14.75;;;;;;;29.08;56.85;99332.69;5062172;28;20025;-64
2021/07/17 05:38:47;;;;;;;15.52;14.02;;;;;;;29.20;56.35;99326.06;5061040;28;20025;-64
2021/07/17 05:41:13;;;;;;;16.40;14.40;;;;;;;29.21;56.75;99330.38;5062141;28;20055;-65
2021/07/17 05:43:39;;;;;;;15.98;14.35;;;;;;;29.29;56.35;99324.28;5061845;28;20086;-64
2021/07/17 05:46:04;;;;;;;15.38;13.77;;;;;;;29.36;55.92;99337.78;5061029;28;20048;-65
2021/07/17 05:48:30;;;;;;;16.45;14.45;;;;;;;29.37;55.38;99328.81;5062549;28;20044;-64
2021/07/17 05:50:56;;;;;;;16.55;14.05;;;;;;;29.32;55.76;99326.63;5064219;28;20021;-64
2021/07/17 05:53:22;;;;;;;17.25;14.52;;;;;;;29.33;54.58;99322.97;5064116;28;20044;-64
2021/07/17 05:55:48;;;;;;;18.70;14.30;;;;;;;29.28;54.02;99319.94;5064285;28;20024;-64
2021/07/17 05:58:14;;;;;;;16.67;13.70;;;;;;;29.29;54.07;99326.09;5064351;28;20036;-64
2021/07/17 06:00:42;;;;;;;14.35;12.95;;;;;;;29.39;53.56;99324.16;5056056;28;20024;-66
2021/07/17 06:03:09;;;;;;;13.88;12.48;;;;;;;29.48;53.62;99330.34;5063663;28;20060;-65
2021/07/17 06:05:35;;;;;;;14.85;13.35;;;;;;;29.56;54.01;99322.34;5065622;28;20048;-65
2021/07/17 06:08:01;;;;;;;14.35;12.98;;;;;;;29.61;53.13;99326.16;5065716;28;20064;-65
2021/07/17 06:10:27;;;;;;;14.80;13.25;;;;;;;29.69;53.98;99320.00;5065636;28;20025;-65
2021/07/17 06:12:53;;;;;;;15.23;13.73;;;;;;;29.64;54.01;99290.31;5065386;28;20341;-65
2021/07/17 06:15:19;;;;;;;16.67;14.95;;;;;;;29.91;54.10;99315.03;5065156;28;20075;-65
2021/07/17 06:17:45;;;;;;;13.93;12.55;;;;;;;30.00;52.68;99322.06;5065556;28;20035;-65
2021/07/17 06:20:11;;;;;;;13.73;12.40;;;;;;;30.06;50.53;99318.72;5065380;28;20021;-66
2021/07/17 06:22:37;;;;;;;14.30;12.90;;;;;;;30.03;50.61;99319.06;5065113;28;20071;-65
2021/07/17 06:25:04;;;;;;;19.00;12.18;;;;;;;30.01;50.49;99282.81;5065177;28;20025;-65
2021/07/17 06:27:30;;;;;;;14.40;13.00;;;;;;;30.21;49.84;99310.84;5065107;28;20266;-65
2021/07/17 06:29:56;;;;;;;16.52;11.82;;;;;;;30.30;50.32;99319.69;5065229;28;20021;-65
2021/07/17 06:32:22;;;;;;;12.50;11.27;;;;;;;30.36;49.00;99319.00;5063860;28;20238;-65
2021/07/17 06:34:48;;;;;;;13.32;12.20;;;;;;;30.38;49.13;99314.31;5064935;28;20053;-65
2021/07/17 06:37:14;;;;;;;12.48;11.40;;;;;;;30.41;48.01;99315.81;5065193;28;20043;-64
2021/07/17 06:39:39;;;;;;;13.32;12.02;;;;;;;30.41;49.76;99308.66;5065230;28;20040;-64
2021/07/17 06:42:05;;;;;;;16.48;13.07;;;;;;;30.42;49.22;99306.81;5065237;28;20089;-65
2021/07/17 06:44:31;;;;;;;13.43;12.10;;;;;;;30.48;48.90;99305.31;5064674;28;20037;-65
2021/07/17 06:46:57;;;;;;;14.63;11.90;;;;;;;30.48;47.53;99305.31;5064880;28;20025;-64
2021/07/17 06:49:23;;;;;;;12.73;11.63;;;;;;;30.55;47.42;99308.97;5064603;28;20021;-64
2021/07/17 06:51:49;;;;;;;12.52;11.20;;;;;;;30.58;48.69;99297.91;5065072;28;20029;-64
2021/07/17 06:54:14;;;;;;;17.17;12.15;;;;;;;30.60;48.20;99306.63;5064878;28;20330;-65
2021/07/17 06:56:40;;;;;;;13.52;11.75;;;;;;;30.67;47.15;99304.94;5064990;28;20021;-64
2021/07/17 06:59:06;;;;;;;14.35;12.43;;;;;;;30.78;47.35;99303.69;5064998;28;20096;-65
2021/07/17 07:01:33;;;;;;;13.30;10.93;;;;;;;30.84;46.27;99307.53;5064768;28;20017;-65
2021/07/17 07:03:58;;;;;;;12.25;10.75;;;;;;;30.88;46.00;99298.16;5064898;28;20041;-64
2021/07/17 07:06:24;;;;;;;13.98;11.38;;;;;;;30.98;45.42;99304.09;5064609;28;20032;-64
2021/07/17 07:08:50;;;;;;;11.95;10.85;;;;;;;31.00;45.99;99307.47;5064855;28;20074;-64
2021/07/17 07:11:16;;;;;;;11.75;10.55;;;;;;;31.06;45.01;99303.28;5064266;28;20206;-64
2021/07/17 07:13:42;;;;;;;13.75;11.32;;;;;;;31.09;45.18;99308.28;5064605;28;20067;-64
2021/07/17 07:16:08;;;;;;;15.10;11.57;;;;;;;31.09;46.01;99305.59;5064686;28;20029;-64
2021/07/17 07:18:33;;;;;;;14.05;11.93;;;;;;;31.18;46.57;99293.81;5064675;28;20045;-63
2021/07/17 07:20:59;;;;;;;13.15;11.85;;;;;;;31.24;46.64;99303.00;5063790;28;20028;-64
2021/07/17 07:23:25;;;;;;;15.00;11.00;;;;;;;31.32;45.78;99300.28;5063442;28;20277;-64
2021/07/17 07:25:51;;;;;;;13.55;12.25;;;;;;;31.38;46.60;99299.56;5064526;28;20357;-64
2021/07/17 07:28:17;;;;;;;17.77;12.85;;;;;;;31.32;44.96;99294.91;5064550;28;20025;-65
2021/07/17 07:30:43;;;;;;;12.52;11.20;;;;;;;31.52;45.55;99305.16;5064358;28;20025;-64
2021/07/17 07:33:09;;;;;;;13.10;11.80;;;;;;;31.57;45.55;99298.31;5064050;28;20100;-64
2021/07/17 07:35:35;;;;;;;13.15;11.75;;;;;;;31.55;45.49;99299.44;5063993;28;20021;-65
2021/07/17 07:38:00;;;;;;;13.00;11.48;;;;;;;31.57;44.20;99300.97;5064264;28;20360;-65
2021/07/17 07:40:29;;;;;;;13.68;11.32;;;;;;;31.45;44.40;99264.88;5064067;28;20048;-65
2021/07/17 07:42:55;;;;;;;13.18;12.07;;;;;;;31.66;43.88;99307.09;5063913;28;20048;-64
2021/07/17 07:45:21;;;;;;;12.30;11.20;;;;;;;31.68;44.69;99299.72;5063851;28;20055;-65
2021/07/17 07:47:48;;;;;;;14.05;12.57;;;;;;;31.67;44.00;99303.41;5063911;28;20021;-65
2021/07/17 07:50:15;;;;;;;13.75;12.00;;;;;;;31.76;43.96;99296.16;5063816;28;20049;-64
2021/07/17 07:52:41;;;;;;;13.73;12.10;;;;;;;31.59;43.18;99298.13;5063819;28;20044;-62
2021/07/17 07:55:08;;;;;;;13.50;12.25;;;;;;;31.61;44.53;99296.09;5063617;28;20021;-63
2021/07/17 07:57:34;;;;;;;14.75;13.25;;;;;;;31.57;43.88;99300.09;5063568;28;20049;-62
2021/07/17 08:00:00;;;;;;;16.25;13.63;;;;;;;31.44;45.31;99280.13;5063492;28;20214;-63
2021/07/17 08:02:26;;;;;;;14.93;13.35;;;;;;;31.49;43.88;99299.16;5063547;28;20333;-63
2021/07/17 08:04:53;;;;;;;15.35;13.95;;;;;;;31.46;44.88;99296.00;5063387;28;20051;-63
2021/07/17 08:07:19;;;;;;;16.52;13.60;;;;;;;31.44;45.43;99298.00;5063509;28;20255;-63
2021/07/17 08:09:45;;;;;;;15.45;13.90;;;;;;;31.55;45.50;99296.78;5063436;28;20088;-64
2021/07/17 08:12:10;;;;;;;17.15;14.23;;;;;;;31.33;46.51;99288.56;5063124;28;20040;-64
2021/07/17 08:14:36;;;;;;;15.90;14.48;;;;;;;31.40;45.65;99292.19;5063285;28;20100;-64
2021/07/17 08:17:06;;;;;;;15.50;14.00;;;;;;;31.52;44.71;99292.59;5063537;28;20040;-64
2021/07/17 08:19:32;;;;;;;15.23;13.73;;;;;;;31.61;45.01;99291.59;5063271;28;20044;-63
2021/07/17 08:21:58;;;;;;;14.75;13.35;;;;;;;31.67;45.35;99282.81;5063577;28;20040;-63
2021/07/17 08:24:24;;;;;;;13.88;12.77;;;;;;;31.76;44.08;99283.56;5063092;28;20024;-63
2021/07/17 08:26:50;;;;;;;15.60;14.07;;;;;;;31.83;44.67;99273.81;5063272;28;20027;-61
2021/07/17 08:29:16;;;;;;;15.57;14.18;;;;;;;31.76;45.09;99274.72;5063000;28;20314;-63
2021/07/17 08:31:41;;;;;;;14.82;13.43;;;;;;;31.81;44.34;99273.16;5063039;28;20071;-62
2021/07/17 08:34:07;;;;;;;16.90;15.40;;;;;;;31.79;44.91;99274.34;5062915;28;20028;-63
2021/07/17 08:36:33;;;;;;;14.60;13.20;;;;;;;31.79;44.42;99272.50;5062721;28;20037;-62
2021/07/17 08:38:59;;;;;;;15.55;14.00;;;;;;;31.76;44.55;99282.75;5061658;28;20263;-63
2021/07/17 08:41:27;;;;;;;16.33;14.73;;;;;;;31.82;44.77;99282.88;5062813;28;20326;-63
2021/07/17 08:43:54;;;;;;;13.68;12.48;;;;;;;31.92;42.32;99277.25;5062876;28;20040;-63
2021/07/17 08:46:24;;;;;;;15.35;14.05;;;;;;;31.99;44.15;99272.00;5062768;28;20040;-62
2021/07/17 08:48:54;;;;;;;16.05;14.38;;;;;;;32.08;44.06;99275.41;5062212;28;20607;-63
2021/07/17 08:51:21;;;;;;;15.40;13.98;;;;;;;32.02;43.36;99260.91;5062661;28;20044;-63
2021/07/17 08:53:48;;;;;;;15.25;13.85;;;;;;;31.95;43.70;99270.69;5062549;28;20368;-63
2021/07/17 08:56:16;;;;;;;15.35;13.98;;;;;;;31.79;44.34;99239.53;5062751;28;20037;-63
2021/07/17 08:58:42;;;;;;;16.50;14.93;;;;;;;32.06;43.72;99267.56;5062704;28;20045;-63
2021/07/17 09:01:08;;;;;;;16.35;15.05;;;;;;;32.16;43.85;99252.06;5062523;28;20067;-63
2021/07/17 09:03:34;;;;;;;16.15;14.70;;;;;;;32.34;44.05;99249.03;5061258;28;20274;-63
2021/07/17 09:05:59;;;;;;;16.35;14.85;;;;;;;32.32;43.83;99261.81;5062325;28;20067;-62
2021/07/17 09:08:26;;;;;;;15.57;14.27;;;;;;;32.26;44.20;99269.75;5062525;28;20060;-63
2021/07/17 09:10:54;;;;;;;18.95;15.15;;;;;;;32.10;43.37;99258.16;5057065;28;20032;-62
2021/07/17 09:13:24;;;;;;;17.05;15.55;;;;;;;32.07;44.85;99252.31;5054231;28;20048;-62
2021/07/17 09:15:50;;;;;;;17.23;15.68;;;;;;;32.28;44.74;99262.34;5058060;28;20263;-61
2021/07/17 09:18:28;;;;;;;17.00;15.32;;;;;;;32.50;43.93;99242.66;5057230;28;20027;-62
2021/07/17 09:21:04;;;;;;;17.15;15.65;;;;;;;32.56;43.29;99243.75;5058311;28;20289;-62
2021/07/17 09:23:33;;;;;;;15.18;13.68;;;;;;;32.55;43.39;99228.66;5056913;28;20048;-62
2021/07/17 09:26:01;;;;;;;15.18;13.88;;;;;;;32.55;43.00;99252.00;5056011;28;20336;-62
2021/07/17 09:28:30;;;;;;;15.82;14.35;;;;;;;32.25;43.67;99214.47;5054269;28;20361;-61
2021/07/17 09:30:58;;;;;;;16.17;14.88;;;;;;;32.19;44.69;99226.75;5058672;28;20052;-61
2021/07/17 09:33:25;;;;;;;15.80;14.27;;;;;;;32.37;44.46;99257.72;5058194;28;20112;-62
2021/07/17 09:35:52;;;;;;;15.65;14.35;;;;;;;32.18;44.86;99250.06;5057661;28;20350;-62
2021/07/17 09:38:20;;;;;;;15.93;14.52;;;;;;;32.29;44.97;99239.88;5061174;28;20268;-62
2021/07/17 09:40:49;;;;;;;16.08;14.68;;;;;;;32.44;43.74;99240.72;5058350;28;20047;-61
2021/07/17 09:43:36;;;;;;;15.52;14.13;;;;;;;32.47;43.80;99250.25;5059586;28;20274;-61
2021/07/17 09:46:16;;;;;;;15.27;13.98;;;;;;;32.42;44.65;99240.06;5056494;28;20067;-61
2021/07/17 09:48:50;;;;;;;16.60;15.20;;;;;;;32.03;44.81;99187.56;5054623;28;20251;-62
2021/07/17 09:51:20;;;;;;;16.33;14.80;;;;;;;32.41;44.83;99238.41;5055287;28;20041;-62
2021/07/17 09:53:48;;;;;;;16.80;15.20;;;;;;;32.38;44.50;99224.53;5055569;28;20036;-62
2021/07/17 09:56:15;;;;;;;16.35;14.95;;;;;;;32.27;44.80;99188.34;5053916;28;20075;-62
2021/07/17 09:58:42;;;;;;;16.80;15.05;;;;;;;32.49;43.98;99218.72;5056523;28;20358;-62
2021/07/17 10:01:17;;;;;;;16.88;15.43;;;;;;;32.25;43.89;99174.28;5057916;28;20044;-62
2021/07/17 10:03:44;;;;;;;15.18;13.85;;;;;;;32.49;43.92;99197.25;5049836;28;20260;-62
2021/07/17 10:06:24;;;;;;;16.60;15.18;;;;;;;32.40;43.02;99201.91;5050148;28;20053;-62
2021/07/17 10:08:50;;;;;;;16.27;14.63;;;;;;;32.42;42.96;99194.47;5054367;28;20048;-63
2021/07/17 10:11:25;;;;;;;16.33;14.85;;;;;;;32.30;41.62;99177.22;5054969;28;20233;-63
2021/07/17 10:13:52;;;;;;;15.55;14.05;;;;;;;32.52;42.21;99200.41;5057660;28;20040;-63
2021/07/17 10:16:21;;;;;;;14.68;13.25;;;;;;;32.56;40.98;99189.31;5060575;28;20060;-62
2021/07/17 10:18:49;;;;;;;13.30;12.10;;;;;;;32.43;39.03;99182.75;5060395;28;20040;-62
2021/07/17 10:21:16;;;;;;;9.80;8.90;;;;;;;32.42;35.45;99185.63;5051848;28;20143;-62
2021/07/17 10:23:42;;;;;;;11.85;10.75;;;;;;;32.56;38.28;99197.34;5051579;28;20056;-62
2021/07/17 10:26:09;;;;;;;12.07;11.07;;;;;;;32.64;38.81;99191.88;5051455;28;20041;-63
2021/07/17 10:28:36;;;;;;;13.98;12.75;;;;;;;32.71;39.32;99184.78;5053979;28;20079;-62
2021/07/17 10:31:02;;;;;;;14.43;13.27;;;;;;;32.80;40.14;99183.63;5047598;28;20041;-63
2021/07/17 10:33:31;;;;;;;14.80;13.50;;;;;;;32.77;40.02;99178.63;5058479;28;20360;-63
2021/07/17 10:36:00;;;;;;;14.02;12.73;;;;;;;32.60;41.23;99140.47;5056899;28;20341;-63
2021/07/17 10:38:29;;;;;;;14.60;13.45;;;;;;;32.61;41.61;99178.81;5057998;28;20044;-62
2021/07/17 10:40:57;;;;;;;15.65;14.18;;;;;;;32.66;42.03;99187.16;5061665;28;20036;-63
2021/07/17 10:43:23;;;;;;;15.63;14.15;;;;;;;32.56;42.79;99181.25;5061964;28;20053;-64
2021/07/17 10:45:50;;;;;;;14.90;13.70;;;;;;;32.58;42.61;99188.09;5055066;28;20041;-63
2021/07/17 10:48:22;;;;;;;15.55;14.23;;;;;;;32.47;41.88;99192.09;5062003;28;20269;-64
2021/07/17 10:50:48;;;;;;;15.52;13.98;;;;;;;32.39;43.11;99202.91;5064872;28;20044;-62
2021/07/17 10:53:43;;;;;;;15.57;14.30;;;;;;;32.37;43.65;99209.47;5058975;28;20289;-61
2021/07/17 10:56:26;;;;;;;16.15;14.75;;;;;;;32.24;42.96;99210.13;5056188;28;20049;-62
2021/07/17 10:59:00;;;;;;;15.27;14.07;;;;;;;32.04;42.71;99216.03;5077876;28;20167;-62
2021/07/17 11:01:46;;;;;;;15.85;14.35;;;;;;;32.00;44.14;99231.63;5061685;28;20044;-62
2021/07/17 11:04:49;;;;;;;16.25;14.75;;;;;;;31.57;46.30;99207.28;5057022;28;20333;-61
2021/07/17 11:07:18;;;;;;;20.67;14.43;;;;;;;31.44;46.00;99265.88;5057554;28;20045;-57
2021/07/17 11:09:55;;;;;;;15.63;13.68;;;;;;;31.15;46.89;99287.00;5058375;28;20051;-57
2021/07/17 11:12:28;;;;;;;29.98;13.45;;;;;;;31.11;46.99;99268.78;5060047;28;20044;-57
2021/07/17 11:14:55;;;;;;;18.42;13.48;;;;;;;31.07;47.60;99271.00;5057543;28;20049;-58
2021/07/17 11:17:53;;;;;;;21.08;13.57;;;;;;;30.88;48.97;99271.41;5056190;28;20036;-57